createdAt,value
2023-01-29T00:00:53.469Z,1.64
2023-01-29T00:02:25.001Z,1.64
2023-01-29T00:03:56.645Z,1.67
2023-01-29T00:05:28.751Z,1.70
2023-01-29T00:07:00.349Z,1.72
2023-01-29T00:08:34.429Z,1.70
2023-01-29T00:10:06.366Z,1.66
2023-01-29T00:11:37.888Z,1.65
2023-01-29T00:13:09.406Z,1.68
2023-01-29T00:14:40.841Z,1.74
2023-01-29T00:16:12.590Z,1.81
2023-01-29T00:17:44.769Z,1.87
2023-01-29T00:19:17.418Z,1.90
2023-01-29T00:20:48.921Z,1.95
2023-01-29T00:22:20.444Z,1.98
2023-01-29T00:23:55.170Z,1.96
2023-01-29T00:25:26.725Z,1.95
2023-01-29T00:26:58.189Z,1.94
2023-01-29T00:28:30.720Z,1.94
2023-01-29T00:30:19.244Z,1.88
2023-01-29T00:31:51.161Z,1.79
2023-01-29T00:33:22.746Z,1.73
2023-01-29T00:34:54.212Z,1.69
2023-01-29T00:36:26.015Z,1.65
2023-01-29T00:37:57.999Z,1.59
2023-01-29T00:39:47.453Z,1.55
2023-01-29T00:41:38.970Z,1.49
2023-01-29T00:43:28.867Z,1.45
2023-01-29T00:45:00.372Z,1.43
2023-01-29T00:46:31.876Z,1.45
2023-01-29T00:48:03.501Z,1.50
2023-01-29T00:49:35.040Z,1.56
2023-01-29T00:51:06.530Z,1.63
2023-01-29T00:52:38.445Z,1.71
2023-01-29T00:54:10.391Z,1.75
2023-01-29T00:55:44.446Z,1.77
2023-01-29T00:57:15.910Z,1.76
2023-01-29T00:58:47.387Z,1.70
2023-01-29T01:00:19.542Z,1.66
2023-01-29T01:02:10.004Z,1.60
2023-01-29T01:03:42.128Z,1.58
2023-01-29T01:05:18.053Z,1.61
2023-01-29T01:06:49.747Z,1.65
2023-01-29T01:08:40.155Z,1.72
2023-01-29T01:10:22.606Z,1.76
2023-01-29T01:11:55.537Z,1.78
2023-01-29T01:13:27.906Z,1.82
2023-01-29T01:14:59.491Z,1.84
2023-01-29T01:16:30.988Z,1.87
2023-01-29T01:18:03.353Z,1.89
2023-01-29T01:19:34.837Z,1.93
2023-01-29T01:21:06.385Z,1.96
2023-01-29T01:22:37.888Z,1.99
2023-01-29T01:24:09.439Z,2.02
2023-01-29T01:25:41.525Z,2.04
2023-01-29T01:27:14.499Z,2.03
2023-01-29T01:28:45.977Z,2.00
2023-01-29T01:30:18.089Z,2.01
2023-01-29T01:31:50.183Z,2.04
2023-01-29T01:33:22.081Z,2.07
2023-01-29T01:34:53.885Z,2.10
2023-01-29T01:36:25.436Z,2.12
2023-01-29T01:37:56.909Z,2.11
2023-01-29T01:39:28.443Z,2.07
2023-01-29T01:40:59.941Z,1.95
2023-01-29T01:42:32.809Z,1.84
2023-01-29T01:44:05.150Z,1.74
2023-01-29T01:45:36.899Z,1.68
2023-01-29T01:47:08.486Z,1.65
2023-01-29T01:48:40.492Z,1.65
2023-01-29T01:50:15.276Z,1.67
2023-01-29T01:51:48.580Z,1.64
2023-01-29T01:53:22.540Z,1.61
2023-01-29T01:54:54.075Z,1.57
2023-01-29T01:56:27.801Z,1.57
2023-01-29T01:58:02.959Z,1.59
2023-01-29T01:59:35.739Z,1.59
2023-01-29T02:01:08.193Z,1.60
2023-01-29T02:02:59.269Z,1.62
2023-01-29T02:04:49.335Z,1.66
2023-01-29T02:06:39.409Z,1.68
2023-01-29T02:08:30.231Z,1.71
2023-01-29T02:10:04.186Z,1.74
2023-01-29T02:11:36.141Z,1.75
2023-01-29T02:13:09.424Z,1.74
2023-01-29T02:14:42.213Z,1.71
2023-01-29T02:16:13.675Z,1.73
2023-01-29T02:17:48.185Z,1.74
2023-01-29T02:19:29.554Z,1.74
2023-01-29T02:21:07.588Z,1.77
2023-01-29T02:22:55.077Z,1.78
2023-01-29T02:24:42.381Z,1.77
2023-01-29T02:26:18.659Z,1.80
2023-01-29T02:28:16.106Z,1.81
2023-01-29T02:29:54.203Z,1.82
2023-01-29T02:31:29.117Z,1.83
2023-01-29T02:33:07.498Z,1.81
2023-01-29T02:35:01.089Z,1.82
2023-01-29T02:36:35.860Z,1.80
2023-01-29T02:38:11.805Z,1.81
2023-01-29T02:39:48.970Z,1.84
2023-01-29T02:41:25.980Z,1.88
2023-01-29T02:43:02.951Z,1.94
2023-01-29T02:44:38.988Z,1.99
2023-01-29T02:46:13.506Z,2.04
2023-01-29T02:47:48.491Z,2.09
2023-01-29T02:49:23.405Z,2.16
2023-01-29T02:50:58.865Z,2.22
2023-01-29T02:52:35.405Z,2.25
2023-01-29T02:54:13.749Z,2.29
2023-01-29T02:55:48.007Z,2.31
2023-01-29T02:57:21.473Z,2.26
2023-01-29T02:58:54.841Z,2.15
2023-01-29T03:00:30.279Z,2.04
2023-01-29T03:02:04.795Z,1.91
2023-01-29T03:03:39.576Z,1.77
2023-01-29T03:05:13.149Z,1.67
2023-01-29T03:06:48.091Z,1.58
2023-01-29T03:08:22.980Z,1.52
2023-01-29T03:09:55.627Z,1.48
2023-01-29T03:11:30.099Z,1.43
2023-01-29T03:13:06.298Z,1.40
2023-01-29T03:14:58.332Z,1.33
2023-01-29T03:16:33.172Z,1.26
2023-01-29T03:18:08.544Z,1.21
2023-01-29T03:19:41.502Z,1.15
2023-01-29T03:21:43.071Z,1.13
2023-01-29T03:23:27.202Z,1.15
2023-01-29T03:25:18.558Z,1.24
2023-01-29T03:27:11.681Z,1.31
2023-01-29T03:29:07.283Z,1.39
2023-01-29T03:31:01.785Z,1.45
2023-01-29T03:32:44.559Z,1.52
2023-01-29T03:34:24.028Z,1.54
2023-01-29T03:36:00.753Z,1.57
2023-01-29T03:37:34.966Z,1.60
2023-01-29T03:39:11.370Z,1.64
2023-01-29T03:40:47.546Z,1.66
2023-01-29T03:42:24.576Z,1.70
2023-01-29T03:44:01.136Z,1.72
2023-01-29T03:45:36.818Z,1.73
2023-01-29T03:47:14.764Z,1.74
2023-01-29T03:48:51.886Z,1.75
2023-01-29T03:50:30.934Z,1.74
2023-01-29T03:52:08.908Z,1.73
2023-01-29T03:53:43.927Z,1.71
2023-01-29T03:55:18.559Z,1.61
2023-01-29T03:56:55.427Z,1.49
2023-01-29T03:58:34.697Z,1.39
2023-01-29T04:00:08.820Z,1.31
2023-01-29T04:02:00.692Z,1.24
2023-01-29T04:03:35.102Z,1.17
2023-01-29T04:05:13.832Z,1.09
2023-01-29T04:06:58.307Z,1.05
2023-01-29T04:08:31.068Z,1.02
2023-01-29T04:10:07.914Z,1.00
2023-01-29T04:11:43.554Z,0.96
2023-01-29T04:13:15.997Z,0.93
2023-01-29T04:14:50.222Z,0.91
2023-01-29T04:16:26.531Z,0.91
2023-01-29T04:18:14.763Z,0.92
2023-01-29T04:20:06.984Z,0.93
2023-01-29T04:21:40.440Z,0.90
2023-01-29T04:23:19.993Z,0.89
2023-01-29T04:24:53.817Z,0.88
2023-01-29T04:26:31.097Z,0.83
2023-01-29T04:28:08.655Z,0.77
2023-01-29T04:29:47.817Z,0.74
2023-01-29T04:31:20.986Z,0.72
2023-01-29T04:32:59.751Z,0.68
2023-01-29T04:34:36.239Z,0.67
2023-01-29T04:36:17.800Z,0.63
2023-01-29T04:37:56.819Z,0.58
2023-01-29T04:39:31.999Z,0.56
2023-01-29T04:41:05.317Z,0.55
2023-01-29T04:42:41.569Z,0.57
2023-01-29T04:44:16.978Z,0.63
2023-01-29T04:45:53.295Z,0.69
2023-01-29T04:47:29.285Z,0.73
2023-01-29T04:49:05.358Z,0.76
2023-01-29T04:50:38.260Z,0.80
2023-01-29T04:52:15.518Z,0.86
2023-01-29T04:53:50.321Z,0.92
2023-01-29T04:55:25.241Z,0.96
2023-01-29T04:57:01.166Z,1.01
2023-01-29T04:58:34.821Z,1.06
2023-01-29T05:00:10.590Z,1.10
2023-01-29T05:01:43.108Z,1.13
2023-01-29T05:03:15.393Z,1.13
2023-01-29T05:04:47.736Z,1.17
2023-01-29T05:06:20.795Z,1.18
2023-01-29T05:07:52.739Z,1.20
2023-01-29T05:09:25.950Z,1.20
2023-01-29T05:10:58.705Z,1.22
2023-01-29T05:12:30.893Z,1.25
2023-01-29T05:14:03.754Z,1.28
2023-01-29T05:15:37.325Z,1.32
2023-01-29T05:17:10.395Z,1.36
2023-01-29T05:18:42.477Z,1.38
2023-01-29T05:20:14.390Z,1.40
2023-01-29T05:21:47.936Z,1.40
2023-01-29T05:23:20.627Z,1.38
2023-01-29T05:24:53.439Z,1.28
2023-01-29T05:26:43.677Z,1.16
2023-01-29T05:28:18.321Z,1.02
2023-01-29T05:29:49.909Z,0.93
2023-01-29T05:31:21.471Z,0.86
2023-01-29T05:32:53.463Z,0.81
2023-01-29T05:34:25.015Z,0.77
2023-01-29T05:35:58.129Z,0.75
2023-01-29T05:37:29.665Z,0.77
2023-01-29T05:39:01.199Z,0.77
2023-01-29T05:40:34.064Z,0.76
2023-01-29T05:42:05.624Z,0.73
2023-01-29T05:43:37.104Z,0.71
2023-01-29T05:45:09.231Z,0.72
2023-01-29T05:46:40.753Z,0.72
2023-01-29T05:48:12.286Z,0.74
2023-01-29T05:49:43.772Z,0.73
2023-01-29T05:51:15.228Z,0.77
2023-01-29T05:52:46.693Z,0.76
2023-01-29T05:54:18.200Z,0.75
2023-01-29T05:55:51.098Z,0.77
2023-01-29T05:57:22.692Z,0.80
2023-01-29T05:58:54.610Z,0.80
2023-01-29T06:00:26.212Z,0.81
2023-01-29T06:01:58.143Z,0.82
2023-01-29T06:03:29.598Z,0.82
2023-01-29T06:05:01.032Z,0.81
2023-01-29T06:06:32.508Z,0.84
2023-01-29T06:08:04.505Z,0.82
2023-01-29T06:09:35.933Z,0.85
2023-01-29T06:11:09.548Z,0.90
2023-01-29T06:12:41.117Z,0.92
2023-01-29T06:14:12.635Z,0.94
2023-01-29T06:15:44.164Z,0.97
2023-01-29T06:17:15.683Z,1.08
2023-01-29T06:18:47.136Z,1.13
2023-01-29T06:20:18.969Z,1.16
2023-01-29T06:21:50.657Z,1.23
2023-01-29T06:23:22.263Z,1.27
2023-01-29T06:24:53.714Z,1.35
2023-01-29T06:26:26.525Z,1.41
2023-01-29T06:27:59.532Z,1.47
2023-01-29T06:29:31.159Z,1.53
2023-01-29T06:31:23.817Z,1.58
2023-01-29T06:32:55.576Z,1.68
2023-01-29T06:34:27.033Z,1.76
2023-01-29T06:35:58.847Z,1.84
2023-01-29T06:37:30.354Z,1.91
2023-01-29T06:39:02.110Z,1.92
2023-01-29T06:40:33.580Z,1.88
2023-01-29T06:42:06.419Z,1.87
2023-01-29T06:43:37.896Z,1.86
2023-01-29T06:45:10.113Z,1.86
2023-01-29T06:46:41.653Z,1.83
2023-01-29T06:48:13.139Z,1.81
2023-01-29T06:49:44.815Z,1.77
2023-01-29T06:51:16.372Z,1.74
2023-01-29T06:52:47.834Z,1.72
2023-01-29T06:54:19.277Z,1.66
2023-01-29T06:55:53.637Z,1.64
2023-01-29T06:57:28.471Z,1.55
2023-01-29T06:59:00.132Z,1.52
2023-01-29T07:00:31.671Z,1.49
2023-01-29T07:02:03.251Z,1.45
2023-01-29T07:03:34.784Z,1.41
2023-01-29T07:05:06.472Z,1.39
2023-01-29T07:06:37.971Z,1.41
2023-01-29T07:08:12.004Z,1.42
2023-01-29T07:09:43.528Z,1.44
2023-01-29T07:11:15.014Z,1.45
2023-01-29T07:12:47.887Z,1.45
2023-01-29T07:14:19.453Z,1.40
2023-01-29T07:15:51.171Z,1.35
2023-01-29T07:17:22.700Z,1.35
2023-01-29T07:18:54.171Z,1.33
2023-01-29T07:20:26.532Z,1.35
2023-01-29T07:21:58.100Z,1.39
2023-01-29T07:23:29.587Z,1.36
2023-01-29T07:25:01.103Z,1.34
2023-01-29T07:26:32.599Z,1.32
2023-01-29T07:28:05.632Z,1.36
2023-01-29T07:29:37.142Z,1.43
2023-01-29T07:31:11.637Z,1.51
2023-01-29T07:32:43.153Z,1.49
2023-01-29T07:34:14.648Z,1.51
2023-01-29T07:35:46.132Z,1.49
2023-01-29T07:37:17.605Z,1.53
2023-01-29T07:38:50.293Z,1.57
2023-01-29T07:40:21.763Z,1.61
2023-01-29T07:41:53.247Z,1.58
2023-01-29T07:43:29.015Z,1.59
2023-01-29T07:45:00.471Z,1.61
2023-01-29T07:46:31.947Z,1.63
2023-01-29T07:48:04.960Z,1.63
2023-01-29T07:49:36.484Z,1.61
2023-01-29T07:51:07.986Z,1.67
2023-01-29T07:52:39.754Z,1.76
2023-01-29T07:54:11.216Z,1.90
2023-01-29T07:55:44.064Z,1.98
2023-01-29T07:57:15.868Z,2.06
2023-01-29T07:58:48.794Z,2.13
2023-01-29T08:00:20.884Z,2.21
2023-01-29T08:01:52.866Z,2.31
2023-01-29T08:03:24.488Z,2.33
2023-01-29T08:04:56.015Z,2.32
2023-01-29T08:06:27.566Z,2.34
2023-01-29T08:08:06.554Z,2.34
2023-01-29T08:09:38.681Z,2.29
2023-01-29T08:11:10.146Z,2.29
2023-01-29T08:12:41.633Z,2.29
2023-01-29T08:14:14.466Z,2.28
2023-01-29T08:15:46.119Z,2.25
2023-01-29T08:17:17.647Z,2.25
2023-01-29T08:18:49.163Z,2.25
2023-01-29T08:20:21.197Z,2.22
2023-01-29T08:21:52.693Z,2.19
2023-01-29T08:23:24.261Z,2.19
2023-01-29T08:25:06.451Z,2.23
2023-01-29T08:26:39.431Z,2.33
2023-01-29T08:28:11.805Z,2.44
2023-01-29T08:29:44.650Z,2.56
2023-01-29T08:31:16.787Z,2.69
2023-01-29T08:32:48.291Z,2.74
2023-01-29T08:34:19.835Z,2.77
2023-01-29T08:35:51.653Z,2.69
2023-01-29T08:37:23.303Z,2.59
2023-01-29T08:38:54.825Z,2.48
2023-01-29T08:40:26.992Z,2.42
2023-01-29T08:41:58.564Z,2.39
2023-01-29T08:43:30.161Z,2.37
2023-01-29T08:45:03.369Z,2.40
2023-01-29T08:46:34.919Z,2.37
2023-01-29T08:48:06.649Z,2.37
2023-01-29T08:49:38.133Z,2.38
2023-01-29T08:51:09.663Z,2.37
2023-01-29T08:52:41.202Z,2.40
2023-01-29T08:54:12.717Z,2.43
2023-01-29T08:55:45.830Z,2.48
2023-01-29T08:57:17.324Z,2.52
2023-01-29T08:58:48.950Z,2.60
2023-01-29T09:00:22.890Z,2.64
2023-01-29T09:01:54.368Z,2.71
2023-01-29T09:03:25.894Z,2.72
2023-01-29T09:04:57.430Z,2.79
2023-01-29T09:06:28.894Z,2.82
2023-01-29T09:08:00.724Z,2.87
2023-01-29T09:09:32.154Z,2.89
2023-01-29T09:11:03.817Z,2.97
2023-01-29T09:12:35.308Z,2.97
2023-01-29T09:14:06.905Z,2.95
2023-01-29T09:15:39.830Z,2.93
2023-01-29T09:17:11.353Z,2.90
2023-01-29T09:18:42.847Z,2.86
2023-01-29T09:20:14.370Z,2.87
2023-01-29T09:21:46.357Z,2.82
2023-01-29T09:23:17.880Z,2.74
2023-01-29T09:24:49.431Z,2.74
2023-01-29T09:26:21.096Z,2.66
2023-01-29T09:27:53.857Z,2.70
2023-01-29T09:29:25.430Z,2.75
2023-01-29T09:31:00.441Z,2.81
2023-01-29T09:34:23.587Z,2.86
2023-01-29T09:35:55.089Z,2.82
2023-01-29T09:37:26.617Z,2.83
2023-01-29T09:38:58.163Z,2.82
2023-01-29T09:40:32.264Z,2.85
2023-01-29T09:42:08.055Z,2.91
2023-01-29T09:43:42.861Z,2.93
2023-01-29T09:45:16.090Z,2.96
2023-01-29T09:46:51.443Z,3.04
2023-01-29T09:48:25.681Z,3.08
2023-01-29T09:49:59.018Z,3.11
2023-01-29T09:51:32.067Z,3.11
2023-01-29T09:53:06.794Z,3.17
2023-01-29T09:54:46.906Z,3.13
2023-01-29T09:56:19.985Z,3.17
2023-01-29T09:57:53.515Z,3.19
2023-01-29T09:59:26.745Z,3.27
2023-01-29T10:01:00.636Z,3.33
2023-01-29T10:02:43.899Z,3.34
2023-01-29T10:04:22.903Z,3.35
2023-01-29T10:06:05.068Z,3.45
2023-01-29T10:07:57.809Z,3.53
2023-01-29T10:09:53.320Z,3.57
2023-01-29T10:11:29.533Z,3.65
2023-01-29T10:13:05.502Z,3.70
2023-01-29T10:14:40.877Z,3.73
2023-01-29T10:16:19.442Z,3.74
2023-01-29T10:17:59.887Z,3.80
2023-01-29T10:19:41.064Z,3.84
2023-01-29T10:21:20.205Z,3.90
2023-01-29T10:22:56.715Z,3.97
2023-01-29T10:24:36.460Z,4.03
2023-01-29T10:26:11.126Z,4.03
2023-01-29T10:27:47.485Z,4.06
2023-01-29T10:29:19.966Z,4.07
2023-01-29T10:30:54.912Z,4.08
2023-01-29T10:32:27.041Z,4.09
2023-01-29T10:34:02.902Z,4.12
2023-01-29T10:35:38.268Z,4.09
2023-01-29T10:37:15.574Z,4.05
2023-01-29T10:38:48.507Z,3.97
2023-01-29T10:40:21.609Z,3.94
2023-01-29T10:42:00.884Z,3.95
2023-01-29T10:43:34.076Z,3.99
2023-01-29T10:45:13.031Z,4.01
2023-01-29T10:46:52.041Z,4.00
2023-01-29T10:48:38.413Z,4.00
2023-01-29T10:50:16.470Z,4.06
2023-01-29T10:51:56.363Z,4.04
2023-01-29T10:53:33.407Z,4.08
2023-01-29T10:55:15.015Z,4.08
2023-01-29T10:56:52.384Z,4.13
2023-01-29T10:58:29.743Z,4.19
2023-01-29T11:00:10.141Z,4.22
2023-01-29T11:01:41.923Z,4.20
2023-01-29T11:03:27.107Z,4.16
2023-01-29T11:04:59.580Z,4.09
2023-01-29T11:06:34.083Z,4.07
2023-01-29T11:08:08.583Z,4.08
2023-01-29T11:09:41.512Z,4.14
2023-01-29T11:11:13.763Z,4.15
2023-01-29T11:12:45.757Z,4.14
2023-01-29T11:14:21.749Z,4.15
2023-01-29T11:15:53.616Z,4.17
2023-01-29T11:17:25.885Z,4.16
2023-01-29T11:18:59.352Z,4.12
2023-01-29T11:20:31.855Z,4.12
2023-01-29T11:22:04.792Z,4.15
2023-01-29T11:23:36.285Z,4.08
2023-01-29T11:25:12.637Z,4.09
2023-01-29T11:26:46.196Z,4.07
2023-01-29T11:28:35.205Z,4.10
2023-01-29T11:30:15.037Z,4.10
2023-01-29T11:31:46.966Z,4.11
2023-01-29T11:33:19.684Z,4.14
2023-01-29T11:34:58.500Z,4.13
2023-01-29T11:36:34.040Z,4.12
2023-01-29T11:38:18.503Z,4.13
2023-01-29T11:39:50.616Z,4.15
2023-01-29T11:41:24.282Z,4.19
2023-01-29T11:42:55.860Z,4.22
2023-01-29T11:44:28.720Z,4.25
2023-01-29T11:46:02.530Z,4.29
2023-01-29T11:47:34.092Z,4.32
2023-01-29T11:49:14.298Z,4.36
2023-01-29T11:50:52.371Z,4.36
2023-01-29T11:52:24.541Z,4.38
2023-01-29T11:53:58.138Z,4.39
2023-01-29T11:55:40.938Z,4.44
2023-01-29T11:57:30.195Z,4.47
2023-01-29T11:59:04.599Z,4.50
2023-01-29T12:00:37.498Z,4.56
2023-01-29T12:02:18.699Z,4.61
2023-01-29T12:03:53.092Z,4.66
2023-01-29T12:05:26.045Z,4.70
2023-01-29T12:06:58.005Z,4.75
2023-01-29T12:08:32.128Z,4.73
2023-01-29T12:10:05.608Z,4.71
2023-01-29T12:11:37.552Z,4.67
2023-01-29T12:13:20.437Z,4.72
2023-01-29T12:15:02.071Z,4.73
2023-01-29T12:16:38.006Z,4.72
2023-01-29T12:18:14.088Z,4.69
2023-01-29T12:19:47.870Z,4.68
2023-01-29T12:21:23.933Z,4.68
2023-01-29T12:22:59.558Z,4.68
2023-01-29T12:24:34.460Z,4.70
2023-01-29T12:26:09.833Z,4.73
2023-01-29T12:27:46.305Z,4.77
2023-01-29T12:29:23.991Z,4.75
2023-01-29T12:31:04.879Z,4.71
2023-01-29T12:32:43.144Z,4.69
2023-01-29T12:34:19.439Z,4.71
2023-01-29T12:35:54.874Z,4.77
2023-01-29T12:37:30.570Z,4.81
2023-01-29T12:39:02.241Z,4.82
2023-01-29T12:40:37.831Z,4.82
2023-01-29T12:42:13.851Z,4.82
2023-01-29T12:43:47.951Z,4.84
2023-01-29T12:45:20.880Z,4.84
2023-01-29T12:46:54.464Z,4.88
2023-01-29T12:48:27.793Z,4.90
2023-01-29T12:50:02.334Z,4.91
2023-01-29T12:51:36.485Z,4.94
2023-01-29T12:53:16.418Z,4.92
2023-01-29T12:54:49.972Z,4.94
2023-01-29T12:56:26.177Z,4.90
2023-01-29T12:58:00.088Z,4.91
2023-01-29T12:59:36.790Z,4.96
2023-01-29T13:01:12.458Z,4.97
2023-01-29T13:02:48.601Z,4.97
2023-01-29T13:04:29.354Z,4.96
2023-01-29T13:06:02.692Z,4.97
2023-01-29T13:07:37.894Z,5.06
2023-01-29T13:09:11.780Z,5.08
2023-01-29T13:10:46.081Z,5.06
2023-01-29T13:12:18.539Z,5.11
2023-01-29T13:13:54.380Z,5.13
2023-01-29T13:15:28.722Z,5.16
2023-01-29T13:17:06.895Z,5.18
2023-01-29T13:18:42.072Z,5.24
2023-01-29T13:20:17.607Z,5.26
2023-01-29T13:21:50.904Z,5.28
2023-01-29T13:23:25.484Z,5.31
2023-01-29T13:25:04.508Z,5.37
2023-01-29T13:26:37.103Z,5.39
2023-01-29T13:28:16.378Z,5.36
2023-01-29T13:29:49.435Z,5.39
2023-01-29T13:31:25.586Z,5.43
2023-01-29T13:33:09.235Z,5.47
2023-01-29T13:34:45.011Z,5.49
2023-01-29T13:36:20.769Z,5.52
2023-01-29T13:37:53.740Z,5.61
2023-01-29T13:39:27.362Z,5.67
2023-01-29T13:41:01.826Z,5.74
2023-01-29T13:42:38.689Z,5.83
2023-01-29T13:44:20.110Z,5.85
2023-01-29T13:45:54.245Z,5.89
2023-01-29T13:47:27.444Z,5.90
2023-01-29T13:49:04.768Z,5.91
2023-01-29T13:50:37.572Z,5.96
2023-01-29T13:52:15.990Z,6.06
2023-01-29T13:53:53.723Z,6.15
2023-01-29T13:55:31.377Z,6.19
2023-01-29T13:57:03.350Z,6.17
2023-01-29T13:58:49.693Z,6.15
2023-01-29T14:00:39.672Z,6.15
2023-01-29T14:02:24.056Z,6.11
2023-01-29T14:04:04.571Z,6.12
2023-01-29T14:05:40.736Z,6.10
2023-01-29T14:07:27.105Z,6.10
2023-01-29T14:09:00.635Z,6.09
2023-01-29T14:10:33.438Z,6.06
2023-01-29T14:12:05.393Z,6.05
2023-01-29T14:13:37.195Z,6.09
2023-01-29T14:15:22.585Z,6.12
2023-01-29T14:17:00.709Z,6.12
2023-01-29T14:18:34.678Z,6.07
2023-01-29T14:20:17.435Z,6.04
2023-01-29T14:21:50.140Z,5.97
2023-01-29T14:23:24.062Z,5.91
2023-01-29T14:24:56.924Z,5.85
2023-01-29T14:26:30.316Z,5.84
2023-01-29T14:28:03.109Z,5.83
2023-01-29T14:29:39.344Z,5.80
2023-01-29T14:31:11.106Z,5.78
2023-01-29T14:32:47.550Z,5.74
2023-01-29T14:34:26.396Z,5.71
2023-01-29T14:35:58.264Z,5.66
2023-01-29T14:37:32.662Z,5.64
2023-01-29T14:39:06.701Z,5.61
2023-01-29T14:40:41.350Z,5.61
2023-01-29T14:42:19.087Z,5.63
2023-01-29T14:43:50.818Z,5.60
2023-01-29T14:45:23.474Z,5.60
2023-01-29T14:46:54.998Z,5.57
2023-01-29T14:48:36.986Z,5.54
2023-01-29T14:50:23.421Z,5.53
2023-01-29T14:51:56.532Z,5.46
2023-01-29T14:53:31.609Z,5.45
2023-01-29T14:55:05.639Z,5.43
2023-01-29T14:56:40.496Z,5.43
2023-01-29T14:58:14.474Z,5.46
2023-01-29T14:59:49.313Z,5.42
2023-01-29T15:01:23.252Z,5.36
2023-01-29T15:03:02.091Z,5.32
2023-01-29T15:04:38.395Z,5.30
2023-01-29T15:06:15.375Z,5.26
2023-01-29T15:07:53.393Z,5.23
2023-01-29T15:09:36.502Z,5.20
2023-01-29T15:11:31.170Z,5.19
2023-01-29T15:13:04.826Z,5.19
2023-01-29T15:14:38.282Z,5.15
2023-01-29T15:16:14.712Z,5.15
2023-01-29T15:17:52.372Z,5.13
2023-01-29T15:19:26.815Z,5.14
2023-01-29T15:21:03.412Z,5.14
2023-01-29T15:22:42.553Z,5.11
2023-01-29T15:24:15.423Z,5.07
2023-01-29T15:25:48.250Z,5.06
2023-01-29T15:27:20.402Z,5.08
2023-01-29T15:29:02.122Z,5.05
2023-01-29T15:30:36.256Z,5.03
2023-01-29T15:32:11.020Z,5.02
2023-01-29T15:33:44.783Z,5.02
2023-01-29T15:35:26.349Z,4.99
2023-01-29T15:36:57.939Z,4.97
2023-01-29T15:38:29.590Z,4.93
2023-01-29T15:40:06.826Z,4.92
2023-01-29T15:41:39.478Z,4.95
2023-01-29T15:43:28.801Z,4.95
2023-01-29T15:45:00.410Z,4.94
2023-01-29T15:46:34.264Z,4.93
2023-01-29T15:48:08.503Z,4.94
2023-01-29T15:49:40.171Z,4.92
2023-01-29T15:51:15.578Z,4.90
2023-01-29T15:52:48.873Z,4.89
2023-01-29T15:54:20.421Z,4.89
2023-01-29T15:55:53.788Z,4.90
2023-01-29T15:57:35.293Z,4.88
2023-01-29T15:59:09.713Z,4.84
2023-01-29T16:00:48.199Z,4.84
2023-01-29T16:02:27.520Z,4.85
2023-01-29T16:04:02.972Z,4.85
2023-01-29T16:05:35.163Z,4.88
2023-01-29T16:07:07.106Z,4.88
2023-01-29T16:08:39.573Z,4.90
2023-01-29T16:10:16.402Z,4.94
2023-01-29T16:11:50.459Z,4.93
2023-01-29T16:13:22.930Z,4.93
2023-01-29T16:14:55.311Z,4.92
2023-01-29T16:16:27.925Z,4.93
2023-01-29T16:18:00.726Z,4.90
2023-01-29T16:19:32.575Z,4.88
2023-01-29T16:21:06.534Z,4.88
2023-01-29T16:22:38.361Z,4.86
2023-01-29T16:24:11.847Z,4.80
2023-01-29T16:25:43.524Z,4.80
2023-01-29T16:27:16.493Z,4.75
2023-01-29T16:28:48.319Z,4.73
2023-01-29T16:30:20.058Z,4.73
2023-01-29T16:31:53.247Z,4.71
2023-01-29T16:33:28.619Z,4.72
2023-01-29T16:35:00.340Z,4.70
2023-01-29T16:36:32.092Z,4.68
2023-01-29T16:38:06.308Z,4.67
2023-01-29T16:39:39.588Z,4.67
2023-01-29T16:41:16.292Z,4.67
2023-01-29T16:42:49.190Z,4.64
2023-01-29T16:44:35.319Z,4.65
2023-01-29T16:46:15.927Z,4.65
2023-01-29T16:47:59.468Z,4.67
2023-01-29T16:49:43.743Z,4.69
2023-01-29T16:51:17.621Z,4.69
2023-01-29T16:52:57.375Z,4.71
2023-01-29T16:54:29.567Z,4.72
2023-01-29T16:56:03.654Z,4.72
2023-01-29T16:57:35.227Z,4.74
2023-01-29T16:59:16.632Z,4.75
2023-01-29T17:00:49.835Z,4.77
2023-01-29T17:02:23.928Z,4.77
2023-01-29T17:04:07.645Z,4.77
2023-01-29T17:05:39.275Z,4.79
2023-01-29T17:07:16.189Z,4.81
2023-01-29T17:08:48.075Z,4.82
2023-01-29T17:10:20.862Z,4.82
2023-01-29T17:11:55.896Z,4.83
2023-01-29T17:13:29.097Z,4.85
2023-01-29T17:15:03.067Z,4.86
2023-01-29T17:16:37.422Z,4.86
2023-01-29T17:18:15.521Z,4.86
2023-01-29T17:19:47.244Z,4.83
2023-01-29T17:21:18.734Z,4.83
2023-01-29T17:22:50.383Z,4.84
2023-01-29T17:24:21.928Z,4.84
2023-01-29T17:25:53.837Z,4.83
2023-01-29T17:27:26.751Z,4.84
2023-01-29T17:28:58.280Z,4.83
2023-01-29T17:30:33.781Z,4.83
2023-01-29T17:32:05.628Z,4.82
2023-01-29T17:33:38.375Z,4.82
2023-01-29T17:35:11.899Z,4.83
2023-01-29T17:36:43.731Z,4.83
2023-01-29T17:38:25.633Z,4.81
2023-01-29T17:39:59.398Z,4.83
2023-01-29T17:41:31.656Z,4.83
2023-01-29T17:43:03.332Z,4.81
2023-01-29T17:44:34.847Z,4.82
2023-01-29T17:46:09.919Z,4.83
2023-01-29T17:47:41.417Z,4.84
2023-01-29T17:49:22.596Z,4.85
2023-01-29T17:50:55.154Z,4.85
2023-01-29T17:52:26.637Z,4.85
2023-01-29T17:53:58.366Z,4.85
2023-01-29T17:55:29.849Z,4.85
2023-01-29T17:57:01.381Z,4.85
2023-01-29T17:58:32.924Z,4.85
2023-01-29T18:00:09.595Z,4.87
2023-01-29T18:01:42.887Z,4.84
2023-01-29T18:03:14.771Z,4.88
2023-01-29T18:04:50.816Z,4.88
2023-01-29T18:06:24.693Z,4.86
2023-01-29T18:07:56.211Z,4.89
2023-01-29T18:09:27.926Z,4.88
2023-01-29T18:10:59.702Z,4.87
2023-01-29T18:12:31.262Z,4.86
2023-01-29T18:14:14.291Z,4.90
2023-01-29T18:15:46.053Z,4.91
2023-01-29T18:17:22.397Z,4.92
2023-01-29T18:18:53.949Z,4.92
2023-01-29T18:20:25.726Z,4.93
2023-01-29T18:21:57.247Z,4.94
2023-01-29T18:23:31.642Z,4.93
2023-01-29T18:25:03.340Z,4.90
2023-01-29T18:26:35.838Z,4.91
2023-01-29T18:28:07.564Z,4.91
2023-01-29T18:29:39.166Z,4.91
2023-01-29T18:31:13.977Z,4.92
2023-01-29T18:32:48.218Z,4.90
2023-01-29T18:34:19.762Z,4.91
2023-01-29T18:35:51.250Z,4.93
2023-01-29T18:37:22.745Z,4.97
2023-01-29T18:38:55.307Z,4.98
2023-01-29T18:40:27.046Z,4.97
2023-01-29T18:41:58.774Z,4.95
2023-01-29T18:43:30.349Z,4.95
2023-01-29T18:45:01.991Z,4.96
2023-01-29T18:46:33.554Z,4.94
2023-01-29T18:48:06.987Z,4.93
2023-01-29T18:49:39.226Z,4.94
2023-01-29T18:51:10.892Z,4.91
2023-01-29T18:52:43.212Z,4.89
2023-01-29T18:54:14.828Z,4.87
2023-01-29T18:55:53.943Z,4.89
2023-01-29T18:58:26.617Z,4.90
2023-01-29T18:59:17.054Z,4.89
2023-01-29T19:00:48.804Z,4.86
2023-01-29T19:02:20.408Z,4.89
2023-01-29T19:03:53.851Z,4.89
2023-01-29T19:05:25.627Z,4.88
2023-01-29T19:06:57.175Z,4.91
2023-01-29T19:08:28.669Z,4.91
2023-01-29T19:10:04.672Z,4.89
2023-01-29T19:11:36.134Z,4.87
2023-01-29T19:13:07.660Z,4.88
2023-01-29T19:14:39.161Z,4.88
2023-01-29T19:16:11.953Z,4.90
2023-01-29T19:17:43.428Z,4.87
2023-01-29T19:19:16.755Z,4.87
2023-01-29T19:20:50.321Z,4.89
2023-01-29T19:22:21.854Z,4.90
2023-01-29T19:23:53.322Z,4.90
2023-01-29T19:25:24.874Z,4.92
2023-01-29T19:26:56.451Z,4.92
2023-01-29T19:28:27.992Z,4.93
2023-01-29T19:29:59.562Z,4.91
2023-01-29T19:31:31.950Z,4.91
2023-01-29T19:33:03.867Z,4.92
2023-01-29T19:34:36.780Z,4.91
2023-01-29T19:36:10.332Z,4.91
2023-01-29T19:37:41.904Z,4.91
2023-01-29T19:39:14.600Z,4.89
2023-01-29T19:40:46.053Z,4.89
2023-01-29T19:42:17.549Z,4.89
2023-01-29T19:43:49.201Z,4.89
2023-01-29T19:45:42.938Z,4.87
2023-01-29T19:47:17.251Z,4.85
2023-01-29T19:48:48.987Z,4.86
2023-01-29T19:50:22.349Z,4.88
2023-01-29T19:51:55.965Z,4.87
2023-01-29T19:53:28.182Z,4.90
2023-01-29T19:55:00.008Z,4.85
2023-01-29T19:56:34.167Z,4.84
2023-01-29T19:58:05.585Z,4.86
2023-01-29T19:59:37.105Z,4.85
2023-01-29T20:01:13.330Z,4.85
2023-01-29T20:02:44.839Z,4.84
2023-01-29T20:04:16.273Z,4.84
2023-01-29T20:05:49.144Z,4.82
2023-01-29T20:07:20.739Z,4.82
2023-01-29T20:08:52.357Z,4.82
2023-01-29T20:10:23.904Z,4.83
2023-01-29T20:11:55.365Z,4.86
2023-01-29T20:13:26.902Z,4.87
2023-01-29T20:14:58.515Z,4.90
2023-01-29T20:16:30.200Z,4.90
2023-01-29T20:18:01.872Z,4.89
2023-01-29T20:19:36.349Z,4.86
2023-01-29T20:21:11.237Z,4.87
2023-01-29T20:22:42.950Z,4.85
2023-01-29T20:24:14.766Z,4.84
2023-01-29T20:25:46.438Z,4.84
2023-01-29T20:27:17.907Z,4.83
2023-01-29T20:28:49.516Z,4.85
2023-01-29T20:30:23.140Z,4.84
2023-01-29T20:31:54.751Z,4.85
2023-01-29T20:33:26.380Z,4.86
2023-01-29T20:34:57.910Z,4.87
2023-01-29T20:36:30.755Z,4.82
2023-01-29T20:38:02.463Z,4.84
2023-01-29T20:39:33.920Z,4.85
2023-01-29T20:41:06.715Z,4.85
2023-01-29T20:42:38.399Z,4.87
2023-01-29T20:44:10.007Z,4.88
2023-01-29T20:45:41.888Z,4.87
2023-01-29T20:47:13.698Z,4.89
2023-01-29T20:48:45.303Z,4.93
2023-01-29T20:50:19.020Z,4.96
2023-01-29T20:51:51.977Z,4.99
2023-01-29T20:53:23.503Z,5.00
2023-01-29T20:54:55.123Z,5.00
2023-01-29T20:56:38.024Z,5.01
2023-01-29T20:58:11.058Z,5.01
2023-01-29T20:59:42.698Z,5.02
2023-01-29T21:01:15.657Z,5.04
2023-01-29T21:02:47.692Z,5.05